createdAt,value
2018-06-16T00:01:40.454Z,74.00
2018-06-16T00:04:09.027Z,74.70
2018-06-16T00:06:37.656Z,74.70
2018-06-16T00:09:08.427Z,74.70
2018-06-16T00:11:37.511Z,72.70
2018-06-16T00:14:07.225Z,75.40
2018-06-16T00:16:36.437Z,74.90
2018-06-16T00:19:05.015Z,74.80
2018-06-16T00:21:33.648Z,75.00
2018-06-16T00:24:02.135Z,75.30
2018-06-16T00:26:30.620Z,75.40
2018-06-16T00:28:59.028Z,75.20
2018-06-16T00:31:27.579Z,75.10
2018-06-16T00:33:56.090Z,75.00
2018-06-16T00:36:24.644Z,75.00
2018-06-16T00:38:53.154Z,75.30
2018-06-16T00:41:21.801Z,75.80
2018-06-16T00:43:50.384Z,75.40
2018-06-16T00:46:18.848Z,75.60
2018-06-16T00:48:47.236Z,75.30
2018-06-16T00:51:15.738Z,75.30
2018-06-16T00:53:44.287Z,75.20
2018-06-16T00:56:12.822Z,75.10
2018-06-16T00:58:41.342Z,75.20
2018-06-16T01:01:09.931Z,75.40
2018-06-16T01:03:38.380Z,75.10
2018-06-16T01:06:07.614Z,75.30
2018-06-16T01:08:36.607Z,75.50
2018-06-16T01:11:05.422Z,75.10
2018-06-16T01:13:33.915Z,74.90
2018-06-16T01:16:02.457Z,75.00
2018-06-16T01:18:30.972Z,75.10
2018-06-16T01:20:59.986Z,75.30
2018-06-16T01:23:28.496Z,75.20
2018-06-16T01:25:57.045Z,75.20
2018-06-16T01:28:25.500Z,75.40
2018-06-16T01:30:54.150Z,75.30
2018-06-16T01:33:22.666Z,75.10
2018-06-16T01:35:51.316Z,74.90
2018-06-16T01:38:19.761Z,75.20
2018-06-16T01:40:48.305Z,75.30
2018-06-16T01:43:16.838Z,75.20
2018-06-16T01:45:45.448Z,75.20
2018-06-16T01:48:13.905Z,75.30
2018-06-16T01:50:42.347Z,75.20
2018-06-16T01:53:10.819Z,75.10
2018-06-16T01:55:39.423Z,75.40
2018-06-16T01:58:08.088Z,75.30
2018-06-16T02:00:37.185Z,75.60
2018-06-16T02:03:05.997Z,75.50
2018-06-16T02:05:34.615Z,75.40
2018-06-16T02:08:03.043Z,75.30
2018-06-16T02:10:31.607Z,75.10
2018-06-16T02:13:00.108Z,74.90
2018-06-16T02:15:28.604Z,75.10
2018-06-16T02:17:57.118Z,75.20
2018-06-16T02:20:25.598Z,75.50
2018-06-16T02:22:54.063Z,75.50
2018-06-16T02:25:22.541Z,76.10
2018-06-16T02:27:51.061Z,75.30
2018-06-16T02:30:19.612Z,75.20
2018-06-16T02:32:48.013Z,75.10
2018-06-16T02:35:16.613Z,75.00
2018-06-16T02:37:45.045Z,74.70
2018-06-16T02:40:13.526Z,74.70
2018-06-16T02:42:41.967Z,75.00
2018-06-16T02:45:10.589Z,75.20
2018-06-16T02:47:39.068Z,75.10
2018-06-16T02:50:08.093Z,75.00
2018-06-16T02:52:36.773Z,75.00
2018-06-16T02:55:06.287Z,74.70
2018-06-16T02:57:34.777Z,74.70
2018-06-16T03:00:03.375Z,74.50
2018-06-16T03:02:31.863Z,74.80
2018-06-16T03:05:00.366Z,75.10
2018-06-16T03:07:28.909Z,75.10
2018-06-16T03:09:57.520Z,75.20
2018-06-16T03:12:26.039Z,74.80
2018-06-16T03:14:54.608Z,75.00
2018-06-16T03:17:23.005Z,74.90
2018-06-16T03:19:51.639Z,74.80
2018-06-16T03:22:20.131Z,75.70
2018-06-16T03:24:48.632Z,75.70
2018-06-16T03:27:17.072Z,75.80
2018-06-16T03:29:45.830Z,76.80
2018-06-16T03:32:14.267Z,76.10
2018-06-16T03:34:42.869Z,75.60
2018-06-16T03:37:11.327Z,76.10
2018-06-16T03:39:39.860Z,76.30
2018-06-16T03:42:08.662Z,76.30
2018-06-16T03:44:37.946Z,76.50
2018-06-16T03:47:06.791Z,76.60
2018-06-16T03:49:35.708Z,76.40
2018-06-16T03:52:04.156Z,76.30
2018-06-16T03:54:32.623Z,76.30
2018-06-16T03:57:01.040Z,76.10
2018-06-16T03:59:29.615Z,76.50
2018-06-16T04:01:58.069Z,76.60
2018-06-16T04:04:26.553Z,76.50
2018-06-16T04:06:54.966Z,77.00
2018-06-16T04:09:23.512Z,76.90
2018-06-16T04:11:52.009Z,76.90
2018-06-16T04:14:20.586Z,77.10
2018-06-16T04:16:49.102Z,77.80
2018-06-16T04:19:17.649Z,76.70
2018-06-16T04:21:46.177Z,76.90
2018-06-16T04:24:14.701Z,77.30
2018-06-16T04:26:43.151Z,77.40
2018-06-16T04:29:11.672Z,77.50
2018-06-16T04:31:40.264Z,77.60
2018-06-16T04:34:08.829Z,77.90
2018-06-16T04:36:38.407Z,78.20
2018-06-16T04:39:09.596Z,78.20
2018-06-16T04:41:38.805Z,78.20
2018-06-16T04:44:07.930Z,78.20
2018-06-16T04:46:37.061Z,78.30
2018-06-16T04:49:05.674Z,78.20
2018-06-16T04:51:34.177Z,78.00
2018-06-16T04:54:02.704Z,77.60
2018-06-16T04:56:31.312Z,77.60
2018-06-16T04:58:59.851Z,77.10
2018-06-16T05:01:28.370Z,76.50
2018-06-16T05:03:56.841Z,75.90
2018-06-16T05:06:25.264Z,75.90
2018-06-16T05:08:53.826Z,75.80
2018-06-16T05:11:22.313Z,76.00
2018-06-16T05:13:50.827Z,75.80
2018-06-16T05:16:19.342Z,75.60
2018-06-16T05:18:47.827Z,75.60
2018-06-16T05:21:16.323Z,75.60
2018-06-16T05:23:44.849Z,75.60
2018-06-16T05:26:13.312Z,75.60
2018-06-16T05:28:41.761Z,75.80
2018-06-16T05:31:10.404Z,75.50
2018-06-16T05:33:39.550Z,75.70
2018-06-16T05:36:08.571Z,76.50
2018-06-16T05:38:37.394Z,76.30
2018-06-16T05:41:05.826Z,76.90
2018-06-16T05:43:34.330Z,78.10
2018-06-16T05:46:02.806Z,78.50
2018-06-16T05:48:31.279Z,78.10
2018-06-16T05:50:59.708Z,78.20
2018-06-16T05:53:28.201Z,77.50
2018-06-16T05:55:56.607Z,79.10
2018-06-16T05:58:25.184Z,78.30
2018-06-16T06:00:53.652Z,78.00
2018-06-16T06:03:22.154Z,78.40
2018-06-16T06:05:50.600Z,79.70
2018-06-16T06:08:19.135Z,78.30
2018-06-16T06:10:47.982Z,77.80
2018-06-16T06:13:16.481Z,77.90
2018-06-16T06:15:44.915Z,77.50
2018-06-16T06:18:13.557Z,77.50
2018-06-16T06:20:42.061Z,77.10
2018-06-16T06:23:10.635Z,77.10
2018-06-16T06:25:40.199Z,77.40
2018-06-16T06:28:09.716Z,77.50
2018-06-16T06:30:38.746Z,77.60
2018-06-16T06:35:35.684Z,79.70
2018-06-16T06:38:04.174Z,79.90
2018-06-16T06:40:33.138Z,80.60
2018-06-16T06:43:01.994Z,80.70
2018-06-16T06:45:30.482Z,80.50
2018-06-16T06:47:58.966Z,80.80
2018-06-16T06:50:27.319Z,80.80
2018-06-16T06:52:56.059Z,80.80
2018-06-16T06:55:24.573Z,81.60
2018-06-16T06:57:53.255Z,80.80
2018-06-16T07:00:21.765Z,80.90
2018-06-16T07:02:50.280Z,80.60
2018-06-16T07:05:18.691Z,81.30
2018-06-16T07:07:47.308Z,81.20
2018-06-16T07:10:15.739Z,81.10
2018-06-16T07:12:44.308Z,80.60
2018-06-16T07:15:12.762Z,81.30
2018-06-16T07:17:41.344Z,81.70
2018-06-16T07:20:09.910Z,80.20
2018-06-16T07:22:39.273Z,80.50
2018-06-16T07:25:07.727Z,78.00
2018-06-16T07:27:36.177Z,78.10
2018-06-16T07:30:04.848Z,77.70
2018-06-16T07:32:33.359Z,78.00
2018-06-16T07:35:02.787Z,78.30
2018-06-16T07:37:31.360Z,75.80
2018-06-16T07:39:59.813Z,75.10
2018-06-16T07:42:28.351Z,75.30
2018-06-16T07:44:56.790Z,73.70
2018-06-16T07:47:25.318Z,74.30
2018-06-16T07:49:53.823Z,74.00
2018-06-16T07:52:22.901Z,71.00
2018-06-16T07:54:51.341Z,73.60
2018-06-16T07:57:19.888Z,72.20
2018-06-16T07:59:48.335Z,72.20
2018-06-16T08:02:16.848Z,70.70
2018-06-16T08:04:45.367Z,73.90
2018-06-16T08:07:13.934Z,73.00
2018-06-16T08:09:42.447Z,75.40
2018-06-16T08:12:11.038Z,74.60
2018-06-16T08:14:40.136Z,74.80
2018-06-16T08:17:09.510Z,75.70
2018-06-16T08:19:38.699Z,75.40
2018-06-16T08:22:07.244Z,74.20
2018-06-16T08:24:35.672Z,75.00
2018-06-16T08:27:04.263Z,73.60
2018-06-16T08:29:32.868Z,73.70
2018-06-16T08:32:01.317Z,73.60
2018-06-16T08:34:29.810Z,72.20
2018-06-16T08:36:58.365Z,69.00
2018-06-16T08:39:26.957Z,67.10
2018-06-16T08:41:55.559Z,68.70
2018-06-16T08:44:24.151Z,70.50
2018-06-16T08:46:52.684Z,71.50
2018-06-16T08:49:21.123Z,70.60
2018-06-16T08:51:49.618Z,69.20
2018-06-16T08:54:18.052Z,64.70
2018-06-16T08:56:46.981Z,69.90
2018-06-16T08:59:15.456Z,70.20
2018-06-16T09:01:44.029Z,69.00
2018-06-16T09:04:12.431Z,67.40
2018-06-16T09:06:41.043Z,67.20
2018-06-16T09:09:10.564Z,67.40
2018-06-16T09:11:39.441Z,67.10
2018-06-16T09:14:08.525Z,67.20
2018-06-16T09:16:37.080Z,64.30
2018-06-16T09:19:06.008Z,66.40
2018-06-16T09:21:35.523Z,68.80
2018-06-16T09:24:04.006Z,68.20
2018-06-16T09:26:32.531Z,68.10
2018-06-16T09:29:00.972Z,67.20
2018-06-16T09:31:30.542Z,67.00
2018-06-16T09:33:58.984Z,66.80
2018-06-16T09:36:27.486Z,67.30
2018-06-16T09:38:55.937Z,68.10
2018-06-16T09:41:24.807Z,66.80
2018-06-16T09:43:53.299Z,65.50
2018-06-16T09:46:21.862Z,66.40
2018-06-16T09:48:50.315Z,66.00
2018-06-16T09:51:18.827Z,65.30
2018-06-16T09:53:47.332Z,60.20
2018-06-16T09:56:15.962Z,63.90
2018-06-16T09:58:44.494Z,66.40
2018-06-16T10:01:12.918Z,65.80
2018-06-16T10:03:41.438Z,61.80
2018-06-16T10:06:10.570Z,65.30
2018-06-16T10:08:39.236Z,66.50
2018-06-16T10:11:07.678Z,63.00
2018-06-16T10:13:36.234Z,65.40
2018-06-16T10:16:04.971Z,65.00
2018-06-16T10:18:33.419Z,63.90
2018-06-16T10:21:01.833Z,63.50
2018-06-16T10:23:30.711Z,65.00
2018-06-16T10:25:59.194Z,64.50
2018-06-16T10:28:27.737Z,63.00
2018-06-16T10:30:56.164Z,64.70
2018-06-16T10:33:24.641Z,63.00
2018-06-16T10:35:53.150Z,63.40
2018-06-16T10:40:49.760Z,61.90
2018-06-16T10:43:18.386Z,62.10
2018-06-16T10:45:46.848Z,64.40
2018-06-16T10:48:15.269Z,65.00
2018-06-16T10:50:43.729Z,64.70
2018-06-16T10:53:12.282Z,63.70
2018-06-16T10:55:40.821Z,66.30
2018-06-16T10:58:09.995Z,59.80
2018-06-16T11:00:39.174Z,62.20
2018-06-16T11:05:35.853Z,64.00
2018-06-16T11:08:04.383Z,63.90
2018-06-16T11:10:32.971Z,63.70
2018-06-16T11:13:01.384Z,64.70
2018-06-16T11:15:29.840Z,63.30
2018-06-16T11:17:58.320Z,62.50
2018-06-16T11:20:26.728Z,65.10
2018-06-16T11:22:55.088Z,67.70
2018-06-16T11:25:23.647Z,68.40
2018-06-16T11:27:52.062Z,63.70
2018-06-16T11:30:20.639Z,65.50
2018-06-16T11:32:49.024Z,65.50
2018-06-16T11:35:17.522Z,64.40
2018-06-16T11:37:46.548Z,63.50
2018-06-16T11:40:15.042Z,63.90
2018-06-16T11:42:43.490Z,61.50
2018-06-16T11:45:11.981Z,62.10
2018-06-16T11:47:40.441Z,64.90
2018-06-16T11:50:10.760Z,65.80
2018-06-16T11:52:39.419Z,66.70
2018-06-16T11:55:07.926Z,66.10
2018-06-16T11:57:36.370Z,63.60
2018-06-16T12:00:05.125Z,62.30
2018-06-16T12:02:33.605Z,63.10
2018-06-16T12:05:02.133Z,62.20
2018-06-16T12:07:30.592Z,60.50
2018-06-16T12:09:59.189Z,58.40
2018-06-16T12:12:27.688Z,61.70
2018-06-16T12:14:56.143Z,60.70
2018-06-16T12:17:24.571Z,63.00
2018-06-16T12:19:53.058Z,62.10
2018-06-16T12:22:21.862Z,57.90
2018-06-16T12:24:51.156Z,61.80
2018-06-16T12:27:20.252Z,61.60
2018-06-16T12:29:48.819Z,62.00
2018-06-16T12:32:17.486Z,62.20
2018-06-16T12:34:45.938Z,61.60
2018-06-16T12:37:14.376Z,61.50
2018-06-16T12:39:42.799Z,61.80
2018-06-16T12:42:11.277Z,62.20
2018-06-16T12:44:39.850Z,62.50
2018-06-16T12:47:08.410Z,62.10
2018-06-16T12:49:37.014Z,61.30
2018-06-16T12:52:05.479Z,63.30
2018-06-16T12:54:34.078Z,63.10
2018-06-16T12:57:02.574Z,61.80
2018-06-16T12:59:31.255Z,61.00
2018-06-16T13:01:59.711Z,60.80
2018-06-16T13:04:28.221Z,60.00
2018-06-16T13:06:56.672Z,59.40
2018-06-16T13:09:25.215Z,60.20
2018-06-16T13:11:53.746Z,61.90
2018-06-16T13:14:22.300Z,61.70
2018-06-16T13:16:50.732Z,61.60
2018-06-16T13:19:20.911Z,60.40
2018-06-16T13:21:49.346Z,59.70
2018-06-16T13:24:17.819Z,58.50
2018-06-16T13:26:46.334Z,59.10
2018-06-16T13:29:14.902Z,59.40
2018-06-16T13:31:43.500Z,58.90
2018-06-16T13:36:40.115Z,58.10
2018-06-16T13:39:11.168Z,58.80
2018-06-16T13:41:40.208Z,58.70
2018-06-16T13:44:08.736Z,59.90
2018-06-16T13:46:37.173Z,60.50
2018-06-16T13:49:05.755Z,60.10
2018-06-16T13:51:34.328Z,60.70
2018-06-16T13:54:02.773Z,60.30
2018-06-16T13:56:31.255Z,58.60
2018-06-16T13:58:59.925Z,59.50
2018-06-16T14:01:28.389Z,60.40
2018-06-16T14:03:56.868Z,59.70
2018-06-16T14:06:25.392Z,59.50
2018-06-16T14:08:54.206Z,60.80
2018-06-16T14:11:22.665Z,60.60
2018-06-16T14:13:51.690Z,60.50
2018-06-16T14:16:20.573Z,62.00
2018-06-16T14:18:49.100Z,61.70
2018-06-16T14:21:17.563Z,61.10
2018-06-16T14:23:45.963Z,62.40
2018-06-16T14:26:14.364Z,62.20
2018-06-16T14:28:42.815Z,62.50
2018-06-16T14:31:11.176Z,62.90
2018-06-16T14:33:39.754Z,64.30
2018-06-16T14:36:08.143Z,64.30
2018-06-16T14:38:36.624Z,62.70
2018-06-16T14:41:05.121Z,63.20
2018-06-16T14:43:33.579Z,64.70
2018-06-16T14:46:02.057Z,65.20
2018-06-16T14:48:30.602Z,65.50
2018-06-16T14:50:59.036Z,65.70
2018-06-16T14:53:27.545Z,67.20
2018-06-16T14:55:56.177Z,66.50
2018-06-16T14:58:26.446Z,66.00
2018-06-16T15:00:55.966Z,65.40
2018-06-16T15:03:24.876Z,65.40
2018-06-16T15:05:53.483Z,66.90
2018-06-16T15:08:21.944Z,66.00
2018-06-16T15:10:51.356Z,66.80
2018-06-16T15:13:19.895Z,68.10
2018-06-16T15:15:48.382Z,61.90
2018-06-16T15:18:16.946Z,62.00
2018-06-16T15:20:46.020Z,62.70
2018-06-16T15:23:15.147Z,64.80
2018-06-16T15:28:11.726Z,65.10
2018-06-16T15:30:40.196Z,65.00
2018-06-16T15:33:09.111Z,66.30
2018-06-16T15:35:37.553Z,65.70
2018-06-16T15:38:06.141Z,67.30
2018-06-16T15:40:34.617Z,67.40
2018-06-16T15:43:03.059Z,68.00
2018-06-16T15:45:31.604Z,68.10
2018-06-16T15:48:00.248Z,68.20
2018-06-16T15:50:28.730Z,69.00
2018-06-16T15:52:57.275Z,68.70
2018-06-16T15:55:25.738Z,68.50
2018-06-16T15:57:54.278Z,70.70
2018-06-16T16:00:22.807Z,70.00
2018-06-16T16:02:51.932Z,69.20
2018-06-16T16:05:20.374Z,68.80
2018-06-16T16:07:49.719Z,68.40
2018-06-16T16:10:18.225Z,67.60
2018-06-16T16:12:47.036Z,68.10
2018-06-16T16:15:16.477Z,68.80
2018-06-16T16:17:45.356Z,67.40
2018-06-16T16:20:14.139Z,67.70
2018-06-16T16:22:42.660Z,68.10
2018-06-16T16:25:11.125Z,68.90
2018-06-16T16:27:39.671Z,69.50
2018-06-16T16:30:08.215Z,70.70
2018-06-16T16:32:36.772Z,70.80
2018-06-16T16:35:05.292Z,72.20
2018-06-16T16:37:33.830Z,70.60
2018-06-16T16:40:02.327Z,73.70
2018-06-16T16:42:30.831Z,72.90
2018-06-16T16:44:59.371Z,72.00
2018-06-16T16:49:55.963Z,74.50
2018-06-16T16:52:24.582Z,75.40
2018-06-16T16:54:53.071Z,76.80
2018-06-16T16:57:21.583Z,73.50
2018-06-16T16:59:50.035Z,72.30
2018-06-16T17:02:18.569Z,72.70
2018-06-16T17:04:48.058Z,73.10
2018-06-16T17:07:16.954Z,74.20
2018-06-16T17:09:46.172Z,75.90
2018-06-16T17:12:15.285Z,74.80
2018-06-16T17:14:43.772Z,74.40
2018-06-16T17:17:12.271Z,73.10
2018-06-16T17:19:40.712Z,73.30
2018-06-16T17:22:09.118Z,75.90
2018-06-16T17:24:37.557Z,77.10
2018-06-16T17:27:06.120Z,73.90
2018-06-16T17:29:34.575Z,73.30
2018-06-16T17:32:03.530Z,75.30
2018-06-16T17:34:32.052Z,75.60
2018-06-16T17:37:00.610Z,75.10
2018-06-16T17:39:29.026Z,75.30
2018-06-16T17:41:57.537Z,75.80
2018-06-16T17:44:26.014Z,74.60
2018-06-16T17:46:54.578Z,73.30
2018-06-16T17:49:23.097Z,73.90
2018-06-16T17:51:51.696Z,74.30
2018-06-16T17:54:20.124Z,73.20
2018-06-16T17:56:48.665Z,74.00
2018-06-16T17:59:17.613Z,74.10
2018-06-16T18:01:46.695Z,74.20
2018-06-16T18:04:15.605Z,74.10
2018-06-16T18:06:44.085Z,74.00
2018-06-16T18:09:13.203Z,74.20
2018-06-16T18:11:41.781Z,73.80
2018-06-16T18:14:10.211Z,72.00
2018-06-16T18:16:38.733Z,72.50
2018-06-16T18:19:07.152Z,73.70
2018-06-16T18:21:35.685Z,74.30
2018-06-16T18:24:04.217Z,74.00
2018-06-16T18:26:32.756Z,74.00
2018-06-16T18:29:01.246Z,74.70
2018-06-16T18:31:30.811Z,75.70
2018-06-16T18:33:59.238Z,75.00
2018-06-16T18:36:27.808Z,73.00
2018-06-16T18:38:56.274Z,72.60
2018-06-16T18:41:25.965Z,72.60
2018-06-16T18:43:54.564Z,72.10
2018-06-16T18:46:23.018Z,70.60
2018-06-16T18:48:51.467Z,69.40
2018-06-16T18:51:20.052Z,68.90
2018-06-16T18:53:48.568Z,69.80
2018-06-16T18:56:17.751Z,71.50
2018-06-16T18:58:47.255Z,72.20
2018-06-16T19:01:15.902Z,73.50
2018-06-16T19:03:44.421Z,73.30
2018-06-16T19:06:12.957Z,73.10
2018-06-16T19:08:41.406Z,73.40
2018-06-16T19:11:09.856Z,72.50
2018-06-16T19:13:38.268Z,72.70
2018-06-16T19:16:07.060Z,72.40
2018-06-16T19:18:35.696Z,72.90
2018-06-16T19:21:04.173Z,71.20
2018-06-16T19:23:32.687Z,70.80
2018-06-16T19:26:01.119Z,72.00
2018-06-16T19:28:29.577Z,71.90
2018-06-16T19:30:59.151Z,73.00
2018-06-16T19:33:28.158Z,72.60
2018-06-16T19:35:57.496Z,71.60
2018-06-16T19:38:26.152Z,70.20
2018-06-16T19:40:54.717Z,70.70
2018-06-16T19:43:23.215Z,70.60
2018-06-16T19:45:51.947Z,70.80
2018-06-16T19:48:20.353Z,70.20
2018-06-16T19:50:48.773Z,71.30
2018-06-16T19:53:17.231Z,71.00
2018-06-16T19:55:45.764Z,71.80
2018-06-16T19:58:14.299Z,72.60
2018-06-16T20:00:43.793Z,72.90
2018-06-16T20:03:12.370Z,73.30
2018-06-16T20:05:41.317Z,73.20
2018-06-16T20:08:09.816Z,73.20
2018-06-16T20:10:38.476Z,73.30
2018-06-16T20:13:06.974Z,73.30
2018-06-16T20:15:35.412Z,73.30
2018-06-16T20:18:04.215Z,73.10
2018-06-16T20:20:32.792Z,73.20
2018-06-16T20:23:01.200Z,73.40
2018-06-16T20:25:29.756Z,73.40
2018-06-16T20:27:58.217Z,73.10
2018-06-16T20:30:26.705Z,73.40
2018-06-16T20:32:55.129Z,73.30
2018-06-16T20:35:23.625Z,72.80
2018-06-16T20:37:52.068Z,73.60
2018-06-16T20:40:20.572Z,73.10
2018-06-16T20:42:49.172Z,73.40
2018-06-16T20:45:18.743Z,73.50
2018-06-16T20:47:48.019Z,73.50
2018-06-16T20:50:17.492Z,73.60
2018-06-16T20:52:46.059Z,73.80
2018-06-16T20:55:14.670Z,73.40
2018-06-16T20:57:43.101Z,73.60
2018-06-16T21:00:11.905Z,72.90
2018-06-16T21:02:40.335Z,72.40
2018-06-16T21:05:09.169Z,73.10
2018-06-16T21:07:37.736Z,72.90
2018-06-16T21:10:06.195Z,72.50
2018-06-16T21:12:34.680Z,72.70
2018-06-16T21:15:03.202Z,72.40
2018-06-16T21:17:31.715Z,72.70
2018-06-16T21:20:00.136Z,73.20
2018-06-16T21:22:28.640Z,73.80
2018-06-16T21:27:25.339Z,74.10
2018-06-16T21:29:53.819Z,74.20
2018-06-16T21:32:22.256Z,73.80
2018-06-16T21:34:50.830Z,74.30
2018-06-16T21:37:19.288Z,74.30
2018-06-16T21:39:48.544Z,74.20
2018-06-16T21:42:17.747Z,74.50
2018-06-16T21:44:46.932Z,74.40
2018-06-16T21:47:15.395Z,74.30
2018-06-16T21:49:43.991Z,74.10
2018-06-16T21:52:12.482Z,74.60
2018-06-16T21:54:41.145Z,74.90
2018-06-16T21:57:09.654Z,75.40
2018-06-16T21:59:38.182Z,76.20
2018-06-16T22:02:06.622Z,75.40
2018-06-16T22:04:35.611Z,76.30
2018-06-16T22:07:04.361Z,76.30
2018-06-16T22:09:32.811Z,75.90
2018-06-16T22:12:01.240Z,75.80
2018-06-16T22:14:29.824Z,76.00
2018-06-16T22:16:58.329Z,75.90
2018-06-16T22:19:26.900Z,75.80
2018-06-16T22:21:55.355Z,76.10
2018-06-16T22:24:23.845Z,76.60
2018-06-16T22:26:52.322Z,76.90
2018-06-16T22:29:21.009Z,76.80
2018-06-16T22:31:49.496Z,76.60
2018-06-16T22:34:18.043Z,76.70
2018-06-16T22:36:46.514Z,76.70
2018-06-16T22:39:15.187Z,76.60
2018-06-16T22:41:43.673Z,76.50
2018-06-16T22:44:12.294Z,76.90
2018-06-16T22:46:40.805Z,77.10
2018-06-16T22:49:09.441Z,76.80
2018-06-16T22:51:37.923Z,77.40
2018-06-16T22:54:06.543Z,77.30
2018-06-16T22:56:34.998Z,76.90
2018-06-16T22:59:03.853Z,76.60
2018-06-16T23:01:32.457Z,76.80
2018-06-16T23:04:01.078Z,76.40
2018-06-16T23:06:29.528Z,76.50
2018-06-16T23:08:58.699Z,76.10
2018-06-16T23:11:28.201Z,76.20
2018-06-16T23:13:57.056Z,76.60
2018-06-16T23:16:25.467Z,76.80
2018-06-16T23:18:54.112Z,77.20
2018-06-16T23:21:22.703Z,76.60
2018-06-16T23:23:51.192Z,76.60
2018-06-16T23:26:19.659Z,76.80
2018-06-16T23:28:48.617Z,76.70
2018-06-16T23:31:19.181Z,76.30
2018-06-16T23:33:48.830Z,76.50
2018-06-16T23:36:17.496Z,76.40
2018-06-16T23:38:45.983Z,76.50
2018-06-16T23:41:14.551Z,76.70
2018-06-16T23:43:43.011Z,76.60
2018-06-16T23:46:11.691Z,76.10
2018-06-16T23:48:40.160Z,76.60
2018-06-16T23:51:09.048Z,76.50
2018-06-16T23:53:37.639Z,76.50
2018-06-16T23:56:06.659Z,76.60
2018-06-16T23:58:35.069Z,76.50
